createdAt,value
2018-08-20T00:01:19.873Z,2.7
2018-08-20T00:04:19.570Z,3.2
2018-08-20T00:07:19.968Z,3
2018-08-20T00:13:19.587Z,2.7
2018-08-20T00:16:19.814Z,2.5
2018-08-20T00:19:20.014Z,3.7
2018-08-20T00:22:19.756Z,2.5
2018-08-20T00:25:20.016Z,2.6
2018-08-20T00:28:19.783Z,3.3
2018-08-20T00:31:19.858Z,2.8
2018-08-20T00:34:19.622Z,2.5
2018-08-20T00:37:19.926Z,2.4
2018-08-20T00:43:19.826Z,2.5
2018-08-20T00:46:19.804Z,2.7
2018-08-20T00:49:19.775Z,2.2
2018-08-20T00:52:19.759Z,2.8
2018-08-20T00:55:19.713Z,2.3
2018-08-20T00:58:19.893Z,2.9
2018-08-20T01:01:19.808Z,2.4
2018-08-20T01:04:19.762Z,2.6
2018-08-20T01:07:19.744Z,2.3
2018-08-20T01:13:19.810Z,2.7
2018-08-20T01:16:19.754Z,2.4
2018-08-20T01:19:19.674Z,2.3
2018-08-20T01:22:19.815Z,2.3
2018-08-20T01:25:19.606Z,2.5
2018-08-20T01:28:19.973Z,2.3
2018-08-20T01:31:19.820Z,2.3
2018-08-20T01:34:19.827Z,2.8
2018-08-20T01:37:19.953Z,2.9
2018-08-20T01:43:19.809Z,2.3
2018-08-20T01:46:19.863Z,2.5
2018-08-20T01:49:19.756Z,2.5
2018-08-20T01:52:19.855Z,2.4
2018-08-20T01:55:19.861Z,2.4
2018-08-20T01:58:19.793Z,2
2018-08-20T02:01:19.940Z,2.9
2018-08-20T02:04:19.939Z,2.5
2018-08-20T02:07:19.662Z,2.4
2018-08-20T02:13:19.940Z,2.8
2018-08-20T02:16:19.599Z,2.4
2018-08-20T02:19:19.793Z,2.6
2018-08-20T02:22:20.708Z,2.4
2018-08-20T02:25:19.830Z,2.6
2018-08-20T02:28:19.869Z,2.3
2018-08-20T02:31:19.823Z,2.3
2018-08-20T02:34:19.755Z,2.5
2018-08-20T02:37:19.885Z,2.4
2018-08-20T02:43:20.147Z,2.9
2018-08-20T02:46:19.794Z,2.5
2018-08-20T02:49:19.677Z,2.3
2018-08-20T02:52:19.756Z,2.2
2018-08-20T02:55:19.622Z,2.4
2018-08-20T02:58:19.665Z,2.5
2018-08-20T03:01:19.931Z,2.3
2018-08-20T03:04:19.934Z,2.4
2018-08-20T03:07:19.818Z,2.6
2018-08-20T03:13:19.879Z,2.5
2018-08-20T03:16:20.074Z,2.5
2018-08-20T03:19:20.000Z,2.8
2018-08-20T03:22:19.562Z,2.5
2018-08-20T03:25:19.992Z,2.5
2018-08-20T03:28:19.788Z,2.5
2018-08-20T03:31:20.006Z,4
2018-08-20T03:34:19.926Z,2.3
2018-08-20T03:37:19.873Z,2.4
2018-08-20T03:43:19.640Z,2.5
2018-08-20T03:46:19.876Z,2.5
2018-08-20T03:49:19.644Z,2.5
2018-08-20T03:52:20.035Z,2.4
2018-08-20T03:55:19.704Z,2.4
2018-08-20T03:58:19.776Z,2.7
2018-08-20T04:01:19.675Z,6.7
2018-08-20T04:04:19.625Z,8.7
2018-08-20T04:07:19.754Z,7.3
2018-08-20T04:13:19.852Z,7.9
2018-08-20T04:16:19.696Z,8
2018-08-20T04:19:19.893Z,8
2018-08-20T04:22:19.716Z,7.4
2018-08-20T04:25:19.834Z,6.9
2018-08-20T04:28:19.647Z,6.6
2018-08-20T04:31:19.625Z,7.9
2018-08-20T04:34:19.664Z,8.8
2018-08-20T04:37:19.714Z,7.2
2018-08-20T04:43:19.734Z,8.4
2018-08-20T04:46:19.897Z,7.4
2018-08-20T04:49:19.769Z,8.1
2018-08-20T04:52:19.672Z,7.5
2018-08-20T04:55:19.584Z,6.4
2018-08-20T04:58:19.992Z,7.3
2018-08-20T05:01:19.764Z,8.2
2018-08-20T05:04:19.929Z,9.4
2018-08-20T05:07:19.862Z,7.1
2018-08-20T05:13:19.929Z,8.1
2018-08-20T05:16:19.631Z,6.5
2018-08-20T05:19:19.667Z,6.6
2018-08-20T05:22:19.754Z,8
2018-08-20T05:25:19.597Z,7.7
2018-08-20T05:28:19.848Z,7.3
2018-08-20T05:31:19.768Z,6.3
2018-08-20T05:34:19.855Z,5.9
2018-08-20T05:37:19.950Z,6.3
2018-08-20T05:43:19.869Z,5.6
2018-08-20T05:46:19.721Z,6
2018-08-20T05:49:19.950Z,6.1
2018-08-20T05:52:19.889Z,5.1
2018-08-20T05:55:19.889Z,5.3
2018-08-20T05:58:19.697Z,5.3
2018-08-20T06:01:19.877Z,5.3
2018-08-20T06:04:19.560Z,5.3
2018-08-20T06:07:19.688Z,5.2
2018-08-20T06:10:20.065Z,5.2
2018-08-20T06:13:19.637Z,5.4
2018-08-20T06:16:19.848Z,5.4
2018-08-20T06:19:19.575Z,5
2018-08-20T06:22:19.739Z,5.1
2018-08-20T06:25:19.997Z,4.8
2018-08-20T06:28:20.192Z,5
2018-08-20T06:34:19.863Z,5
2018-08-20T06:37:19.516Z,5
2018-08-20T06:40:19.797Z,4.7
2018-08-20T06:43:19.730Z,5.2
2018-08-20T06:46:19.548Z,5.1
2018-08-20T06:49:19.783Z,4.9
2018-08-20T06:52:19.708Z,4.8
2018-08-20T06:55:19.621Z,4.9
2018-08-20T06:58:19.774Z,5
2018-08-20T07:04:19.945Z,4.9
2018-08-20T07:07:19.669Z,4.9
2018-08-20T07:10:19.667Z,4.8
2018-08-20T07:13:19.776Z,4.5
2018-08-20T07:16:19.620Z,4.9
2018-08-20T07:19:19.480Z,4.8
2018-08-20T07:22:19.928Z,4.5
2018-08-20T07:25:19.623Z,4.7
2018-08-20T07:28:19.599Z,4.5
2018-08-20T07:34:19.572Z,4.5
2018-08-20T07:37:19.735Z,4.4
2018-08-20T07:40:19.920Z,4.4
2018-08-20T07:43:19.911Z,4.6
2018-08-20T07:46:19.825Z,4.4
2018-08-20T07:49:20.077Z,4.3
2018-08-20T07:52:19.770Z,4.5
2018-08-20T07:55:19.720Z,4.4
2018-08-20T07:58:19.660Z,4.5
2018-08-20T08:04:19.885Z,4.4
2018-08-20T08:07:19.613Z,4.5
2018-08-20T08:10:19.912Z,4.5
2018-08-20T08:13:19.708Z,4.3
2018-08-20T08:16:19.899Z,4.2
2018-08-20T08:19:19.742Z,4.2
2018-08-20T08:22:19.949Z,4.3
2018-08-20T08:25:19.849Z,4.2
2018-08-20T08:28:19.729Z,4.3
2018-08-20T08:34:19.570Z,4.3
2018-08-20T08:37:19.562Z,4.3
2018-08-20T08:40:19.456Z,4.4
2018-08-20T08:43:19.512Z,4.2
2018-08-20T08:46:19.886Z,4.3
2018-08-20T08:49:19.976Z,4.1
2018-08-20T08:52:19.854Z,4.2
2018-08-20T08:55:19.817Z,4.2
2018-08-20T08:58:19.920Z,4
2018-08-20T09:04:19.932Z,4
2018-08-20T09:07:19.482Z,4.2
2018-08-20T09:10:19.776Z,4.1
2018-08-20T09:13:19.709Z,4
2018-08-20T09:16:19.543Z,4.3
2018-08-20T09:19:20.085Z,4
2018-08-20T09:22:19.711Z,4.2
2018-08-20T09:25:19.624Z,4
2018-08-20T09:28:19.909Z,4
2018-08-20T09:34:19.771Z,3.8
2018-08-20T09:37:19.726Z,4.2
2018-08-20T09:40:19.834Z,3.9
2018-08-20T09:43:19.630Z,4
2018-08-20T09:46:19.631Z,3.8
2018-08-20T09:49:19.748Z,3.9
2018-08-20T09:52:19.623Z,3.9
2018-08-20T09:55:19.871Z,3.9
2018-08-20T09:58:19.678Z,3.8
2018-08-20T10:04:19.830Z,3.9
2018-08-20T10:07:20.229Z,3.9
2018-08-20T10:10:19.813Z,4
2018-08-20T10:13:19.763Z,3.9
2018-08-20T10:16:19.915Z,3.9
2018-08-20T10:19:19.580Z,3.9
2018-08-20T10:22:19.923Z,3.9
2018-08-20T10:25:20.040Z,3.7
2018-08-20T10:28:19.672Z,3.9
2018-08-20T10:34:19.730Z,3.8
2018-08-20T10:37:19.706Z,3.6
2018-08-20T10:40:19.691Z,3.8
2018-08-20T10:43:19.917Z,3.8
2018-08-20T10:46:19.731Z,3.7
2018-08-20T10:49:19.851Z,3.7
2018-08-20T10:52:20.086Z,4.2
2018-08-20T10:55:19.439Z,3.7
2018-08-20T10:58:19.519Z,3.7
2018-08-20T11:04:19.562Z,3.8
2018-08-20T11:07:19.680Z,3.5
2018-08-20T11:10:19.615Z,3.5
2018-08-20T11:13:20.100Z,3.7
2018-08-20T11:16:19.812Z,3.6
2018-08-20T11:19:19.543Z,3.6
2018-08-20T11:22:20.942Z,3.7
2018-08-20T11:25:19.655Z,3.7
2018-08-20T11:28:19.928Z,3.9
2018-08-20T11:34:19.628Z,3.7
2018-08-20T11:37:19.657Z,3.5
2018-08-20T11:40:20.055Z,3.7
2018-08-20T11:43:20.941Z,3.7
2018-08-20T11:46:20.146Z,3.6
2018-08-20T11:49:19.627Z,3.6
2018-08-20T11:52:19.627Z,3.7
2018-08-20T11:55:19.906Z,3.6
2018-08-20T11:58:19.657Z,3.5
2018-08-20T12:04:19.717Z,3.6
2018-08-20T12:07:20.390Z,3.5
2018-08-20T12:10:19.627Z,3.2
2018-08-20T12:13:19.599Z,3.7
2018-08-20T12:16:19.640Z,3.4
2018-08-20T12:19:19.885Z,3.4
2018-08-20T12:22:20.249Z,3.6
2018-08-20T12:25:19.595Z,3.4
2018-08-20T12:28:21.701Z,3.3
2018-08-20T12:34:20.166Z,3.6
2018-08-20T12:37:19.674Z,3.3
2018-08-20T12:40:21.372Z,3.4
2018-08-20T12:43:19.618Z,3.3
2018-08-20T12:46:19.707Z,3.3
2018-08-20T12:49:20.073Z,3.2
2018-08-20T12:55:19.578Z,3.6
2018-08-20T12:58:19.527Z,3.5
2018-08-20T13:01:19.806Z,3.3
2018-08-20T13:04:19.876Z,3.2
2018-08-20T13:07:19.811Z,3.5
2018-08-20T13:10:19.709Z,3.3
2018-08-20T13:13:19.730Z,3.3
2018-08-20T13:16:21.030Z,3.2
2018-08-20T13:19:19.769Z,3.5
2018-08-20T13:25:19.636Z,3.2
2018-08-20T13:28:19.852Z,3.1
2018-08-20T13:31:19.452Z,3.5
2018-08-20T13:34:19.487Z,3.4
2018-08-20T13:37:20.492Z,3.1
2018-08-20T13:40:19.523Z,3.1
2018-08-20T13:43:19.629Z,3.2
2018-08-20T13:46:19.661Z,3
2018-08-20T13:49:19.683Z,3
2018-08-20T13:55:19.709Z,3.3
2018-08-20T13:58:19.668Z,3.2
2018-08-20T14:01:19.695Z,3
2018-08-20T14:04:19.500Z,2.9
2018-08-20T14:07:19.714Z,3.1
2018-08-20T14:10:19.605Z,3.1
2018-08-20T14:13:19.835Z,3
2018-08-20T14:16:19.645Z,3.1
2018-08-20T14:19:19.654Z,3.1
2018-08-20T14:25:19.688Z,2.8
2018-08-20T14:28:19.545Z,3.1
2018-08-20T14:31:19.739Z,3
2018-08-20T14:34:20.091Z,3.1
2018-08-20T14:37:19.573Z,2.9
2018-08-20T14:40:19.896Z,3
2018-08-20T14:43:19.544Z,3.1
2018-08-20T14:46:20.355Z,3
2018-08-20T14:49:19.651Z,3
2018-08-20T14:55:19.681Z,3
2018-08-20T14:58:19.953Z,3
2018-08-20T15:01:19.451Z,3
2018-08-20T15:04:19.659Z,3
2018-08-20T15:07:19.638Z,2.9
2018-08-20T15:10:19.738Z,2.8
2018-08-20T15:13:19.540Z,3
2018-08-20T15:16:19.738Z,2.8
2018-08-20T15:19:19.493Z,3
2018-08-20T15:25:19.698Z,3
2018-08-20T15:28:19.650Z,2.9
2018-08-20T15:31:19.679Z,2.9
2018-08-20T15:34:19.658Z,2.8
2018-08-20T15:37:19.512Z,3
2018-08-20T15:40:19.664Z,2.9
2018-08-20T15:43:19.850Z,2.9
2018-08-20T15:46:21.045Z,2.9
2018-08-20T15:49:19.725Z,2.9
2018-08-20T15:55:19.685Z,2.8
2018-08-20T15:58:19.690Z,2.8
2018-08-20T16:01:19.685Z,2.8
2018-08-20T16:04:19.501Z,2.7
2018-08-20T16:07:19.351Z,2.9
2018-08-20T16:10:19.530Z,2.9
2018-08-20T16:13:19.441Z,2.8
2018-08-20T16:16:19.663Z,2.9
2018-08-20T16:19:19.409Z,2.8
2018-08-20T16:25:19.652Z,2.9
2018-08-20T16:28:19.478Z,2.8
2018-08-20T16:31:19.657Z,2.7
2018-08-20T16:34:19.597Z,2.8
2018-08-20T16:37:19.601Z,2.9
2018-08-20T16:40:19.421Z,2.8
2018-08-20T16:43:19.630Z,3
2018-08-20T16:46:19.640Z,2.8
2018-08-20T16:49:19.458Z,2.8
2018-08-20T16:55:19.498Z,2.9
2018-08-20T16:58:19.672Z,2.8
2018-08-20T17:01:19.502Z,2.9
2018-08-20T17:04:19.793Z,2.8
2018-08-20T17:07:19.947Z,2.8
2018-08-20T17:10:19.655Z,2.7
2018-08-20T17:13:19.721Z,2.8
2018-08-20T17:16:19.791Z,2.7
2018-08-20T17:19:19.916Z,2.7
2018-08-20T17:25:19.533Z,2.7
2018-08-20T17:28:19.833Z,2.9
2018-08-20T17:31:19.542Z,2.7
2018-08-20T17:34:19.642Z,2.7
2018-08-20T17:37:19.660Z,2.9
2018-08-20T17:40:19.777Z,2.8
2018-08-20T17:43:19.501Z,2.8
2018-08-20T17:46:19.764Z,2.7
2018-08-20T17:49:19.586Z,2.9
2018-08-20T17:55:20.913Z,2.7
2018-08-20T17:58:19.503Z,2.8
2018-08-20T18:01:20.528Z,2.8
2018-08-20T18:04:19.440Z,3.2
2018-08-20T18:07:19.625Z,2.6
2018-08-20T18:10:19.415Z,3.2
2018-08-20T18:13:19.556Z,2.6
2018-08-20T18:16:19.617Z,2.7
2018-08-20T18:19:19.810Z,2.9
2018-08-20T18:25:19.445Z,2.8
2018-08-20T18:28:19.395Z,5.7
2018-08-20T18:31:19.634Z,3.3
2018-08-20T18:34:19.748Z,5.4
2018-08-20T18:37:19.703Z,3.3
2018-08-20T18:40:19.613Z,5.6
2018-08-20T18:43:19.945Z,4.1
2018-08-20T18:46:19.671Z,3.9
2018-08-20T18:49:19.355Z,3.2
2018-08-20T18:55:19.442Z,3.6
2018-08-20T18:58:19.703Z,5
2018-08-20T19:01:19.578Z,4
2018-08-20T19:04:19.509Z,7.4
2018-08-20T19:07:19.484Z,7.3
2018-08-20T19:10:19.710Z,5.9
2018-08-20T19:13:19.492Z,5.8
2018-08-20T19:16:19.517Z,4
2018-08-20T19:19:19.367Z,5.6
2018-08-20T19:25:19.826Z,5.3
2018-08-20T19:28:19.488Z,5.4
2018-08-20T19:31:19.655Z,5.1
2018-08-20T19:34:19.642Z,5.7
2018-08-20T19:37:19.976Z,5.4
2018-08-20T19:40:19.695Z,4.6
2018-08-20T19:46:19.549Z,10
2018-08-20T19:49:19.555Z,4.1
2018-08-20T19:52:20.041Z,4.2
2018-08-20T19:55:19.551Z,4.4
2018-08-20T19:58:20.069Z,4
2018-08-20T20:01:19.482Z,4
2018-08-20T20:04:19.899Z,5
2018-08-20T20:07:19.628Z,3.2
2018-08-20T20:10:19.375Z,4.3
2018-08-20T20:16:19.427Z,3.2
2018-08-20T20:19:19.378Z,3.7
2018-08-20T20:22:20.005Z,3.7
2018-08-20T20:25:19.516Z,2.8
2018-08-20T20:28:19.494Z,3.3
2018-08-20T20:31:19.448Z,3
2018-08-20T20:37:19.356Z,3.7
2018-08-20T20:40:19.531Z,3.4
2018-08-20T20:43:19.601Z,3.8
2018-08-20T20:46:19.458Z,3
2018-08-20T20:49:19.443Z,3.3
2018-08-20T20:52:19.419Z,3.1
2018-08-20T20:55:19.529Z,3.6
2018-08-20T20:58:19.430Z,2.5
2018-08-20T21:01:19.389Z,3.6
2018-08-20T21:07:19.874Z,2.8
2018-08-20T21:10:19.658Z,2.6
2018-08-20T21:13:19.682Z,3.9
2018-08-20T21:16:19.623Z,2.7
2018-08-20T21:19:19.406Z,2.8
2018-08-20T21:22:19.489Z,2.8
2018-08-20T21:25:19.418Z,4.1
2018-08-20T21:28:19.582Z,3.5
2018-08-20T21:31:19.621Z,3.7
2018-08-20T21:37:19.589Z,2.9
2018-08-20T21:40:19.583Z,2.7
2018-08-20T21:43:19.491Z,2.9
2018-08-20T21:46:19.387Z,2.7
2018-08-20T21:49:19.656Z,2.6
2018-08-20T21:52:19.716Z,3.3
2018-08-20T21:55:19.552Z,2.7
2018-08-20T21:58:19.360Z,2.7
2018-08-20T22:01:20.575Z,2.5
2018-08-20T22:07:19.336Z,2.7
2018-08-20T22:10:19.491Z,3.1
2018-08-20T22:13:19.735Z,3.9
2018-08-20T22:16:19.554Z,2.7
2018-08-20T22:19:19.402Z,2.5
2018-08-20T22:22:19.493Z,2.7
